sensor_id;sensor_type;location;lat;lon;timestamp;temperature;humidity
31521;DHT22;69043;51.224;4.424;2023-08-06T00:00:25;17.10;99.90
31521;DHT22;69043;51.224;4.424;2023-08-06T00:02:50;17.00;99.90
31521;DHT22;69043;51.224;4.424;2023-08-06T00:05:16;16.90;99.90
31521;DHT22;69043;51.224;4.424;2023-08-06T00:07:50;16.90;99.90
31521;DHT22;69043;51.224;4.424;2023-08-06T00:10:16;16.80;99.90
31521;DHT22;69043;51.224;4.424;2023-08-06T00:12:42;16.60;99.90
31521;DHT22;69043;51.224;4.424;2023-08-06T00:15:08;16.70;99.90
31521;DHT22;69043;51.224;4.424;2023-08-06T00:17:34;16.80;99.90
31521;DHT22;69043;51.224;4.424;2023-08-06T00:20:00;16.80;99.90
31521;DHT22;69043;51.224;4.424;2023-08-06T00:22:33;16.80;99.90
31521;DHT22;69043;51.224;4.424;2023-08-06T00:24:59;16.80;99.90
31521;DHT22;69043;51.224;4.424;2023-08-06T00:27:25;16.70;99.90
31521;DHT22;69043;51.224;4.424;2023-08-06T00:29:50;16.70;99.90
31521;DHT22;69043;51.224;4.424;2023-08-06T00:32:16;16.70;99.90
31521;DHT22;69043;51.224;4.424;2023-08-06T00:34:42;16.80;99.90
31521;DHT22;69043;51.224;4.424;2023-08-06T00:37:08;16.80;99.90
31521;DHT22;69043;51.224;4.424;2023-08-06T00:39:33;16.80;99.90
31521;DHT22;69043;51.224;4.424;2023-08-06T00:41:59;16.80;99.90
31521;DHT22;69043;51.224;4.424;2023-08-06T00:44:24;16.70;99.90
31521;DHT22;69043;51.224;4.424;2023-08-06T00:46:50;16.70;99.90
31521;DHT22;69043;51.224;4.424;2023-08-06T00:49:16;16.70;99.90
31521;DHT22;69043;51.224;4.424;2023-08-06T00:51:43;16.70;99.90
31521;DHT22;69043;51.224;4.424;2023-08-06T00:54:09;16.80;99.90
31521;DHT22;69043;51.224;4.424;2023-08-06T00:56:35;16.80;99.90
31521;DHT22;69043;51.224;4.424;2023-08-06T00:59:03;16.80;99.90
31521;DHT22;69043;51.224;4.424;2023-08-06T01:01:29;16.90;99.90
31521;DHT22;69043;51.224;4.424;2023-08-06T01:03:55;16.90;99.90
31521;DHT22;69043;51.224;4.424;2023-08-06T01:06:39;16.80;99.90
31521;DHT22;69043;51.224;4.424;2023-08-06T01:09:33;16.60;99.90
31521;DHT22;69043;51.224;4.424;2023-08-06T01:12:09;16.80;99.90
31521;DHT22;69043;51.224;4.424;2023-08-06T01:14:47;16.80;99.90
31521;DHT22;69043;51.224;4.424;2023-08-06T01:17:16;16.80;99.90
31521;DHT22;69043;51.224;4.424;2023-08-06T01:19:42;16.90;99.90
31521;DHT22;69043;51.224;4.424;2023-08-06T01:22:07;17.00;99.90
31521;DHT22;69043;51.224;4.424;2023-08-06T01:24:33;17.00;99.90
31521;DHT22;69043;51.224;4.424;2023-08-06T01:27:24;17.00;99.90
31521;DHT22;69043;51.224;4.424;2023-08-06T01:30:03;16.90;99.90
31521;DHT22;69043;51.224;4.424;2023-08-06T01:32:34;17.00;99.90
31521;DHT22;69043;51.224;4.424;2023-08-06T01:35:02;16.90;99.90
31521;DHT22;69043;51.224;4.424;2023-08-06T01:37:28;16.80;99.90
31521;DHT22;69043;51.224;4.424;2023-08-06T01:39:54;16.70;99.90
31521;DHT22;69043;51.224;4.424;2023-08-06T01:42:20;16.80;99.90
31521;DHT22;69043;51.224;4.424;2023-08-06T01:44:46;16.70;99.90
31521;DHT22;69043;51.224;4.424;2023-08-06T01:47:11;16.60;99.90
31521;DHT22;69043;51.224;4.424;2023-08-06T01:49:37;16.50;99.90
31521;DHT22;69043;51.224;4.424;2023-08-06T01:52:03;16.40;99.90
31521;DHT22;69043;51.224;4.424;2023-08-06T01:54:29;16.60;99.90
31521;DHT22;69043;51.224;4.424;2023-08-06T01:56:55;16.80;99.90
31521;DHT22;69043;51.224;4.424;2023-08-06T01:59:20;17.00;99.90
31521;DHT22;69043;51.224;4.424;2023-08-06T02:01:46;17.00;99.90
31521;DHT22;69043;51.224;4.424;2023-08-06T02:04:12;16.90;99.90
31521;DHT22;69043;51.224;4.424;2023-08-06T02:06:37;16.80;99.90
31521;DHT22;69043;51.224;4.424;2023-08-06T02:09:03;16.80;99.90
31521;DHT22;69043;51.224;4.424;2023-08-06T02:11:29;17.00;99.90
31521;DHT22;69043;51.224;4.424;2023-08-06T02:13:54;17.10;99.90
31521;DHT22;69043;51.224;4.424;2023-08-06T02:16:20;17.00;99.90
31521;DHT22;69043;51.224;4.424;2023-08-06T02:18:46;16.90;99.90
31521;DHT22;69043;51.224;4.424;2023-08-06T02:21:11;16.90;99.90
31521;DHT22;69043;51.224;4.424;2023-08-06T02:23:37;16.90;99.90
31521;DHT22;69043;51.224;4.424;2023-08-06T02:26:04;17.00;99.90
31521;DHT22;69043;51.224;4.424;2023-08-06T02:28:30;17.10;99.90
31521;DHT22;69043;51.224;4.424;2023-08-06T02:30:56;17.10;99.90
31521;DHT22;69043;51.224;4.424;2023-08-06T02:33:22;17.30;99.90
31521;DHT22;69043;51.224;4.424;2023-08-06T02:35:48;17.10;99.90
31521;DHT22;69043;51.224;4.424;2023-08-06T02:38:14;17.20;99.90
31521;DHT22;69043;51.224;4.424;2023-08-06T02:40:46;17.30;99.90
31521;DHT22;69043;51.224;4.424;2023-08-06T02:43:12;17.30;99.90
31521;DHT22;69043;51.224;4.424;2023-08-06T02:45:39;17.40;99.90
31521;DHT22;69043;51.224;4.424;2023-08-06T02:48:05;17.30;99.90
31521;DHT22;69043;51.224;4.424;2023-08-06T02:50:31;17.30;99.90
31521;DHT22;69043;51.224;4.424;2023-08-06T02:52:56;17.30;99.90
31521;DHT22;69043;51.224;4.424;2023-08-06T02:55:22;17.30;99.90
31521;DHT22;69043;51.224;4.424;2023-08-06T02:57:48;17.30;99.90
31521;DHT22;69043;51.224;4.424;2023-08-06T03:00:13;17.20;99.90
31521;DHT22;69043;51.224;4.424;2023-08-06T03:02:39;17.10;99.90
31521;DHT22;69043;51.224;4.424;2023-08-06T03:05:05;17.00;99.90
31521;DHT22;69043;51.224;4.424;2023-08-06T03:07:31;16.90;99.90
31521;DHT22;69043;51.224;4.424;2023-08-06T03:09:59;16.90;99.90
31521;DHT22;69043;51.224;4.424;2023-08-06T03:12:26;16.90;99.90
31521;DHT22;69043;51.224;4.424;2023-08-06T03:14:52;16.90;99.90
31521;DHT22;69043;51.224;4.424;2023-08-06T03:17:18;16.90;99.90
31521;DHT22;69043;51.224;4.424;2023-08-06T03:19:43;16.90;99.90
31521;DHT22;69043;51.224;4.424;2023-08-06T03:22:09;16.70;99.90
31521;DHT22;69043;51.224;4.424;2023-08-06T03:24:35;16.70;99.90
31521;DHT22;69043;51.224;4.424;2023-08-06T03:27:00;16.60;99.90
31521;DHT22;69043;51.224;4.424;2023-08-06T03:29:26;16.50;99.90
31521;DHT22;69043;51.224;4.424;2023-08-06T03:31:52;16.50;99.90
31521;DHT22;69043;51.224;4.424;2023-08-06T03:34:18;16.70;99.90
31521;DHT22;69043;51.224;4.424;2023-08-06T03:36:43;16.60;99.90
31521;DHT22;69043;51.224;4.424;2023-08-06T03:39:09;16.60;99.90
31521;DHT22;69043;51.224;4.424;2023-08-06T03:41:35;16.70;99.90
31521;DHT22;69043;51.224;4.424;2023-08-06T03:44:01;16.70;99.90
31521;DHT22;69043;51.224;4.424;2023-08-06T03:46:29;16.70;99.90
31521;DHT22;69043;51.224;4.424;2023-08-06T03:48:57;16.70;99.90
31521;DHT22;69043;51.224;4.424;2023-08-06T03:51:23;16.70;99.90
31521;DHT22;69043;51.224;4.424;2023-08-06T03:53:48;16.70;99.90
31521;DHT22;69043;51.224;4.424;2023-08-06T03:56:14;16.60;99.90
31521;DHT22;69043;51.224;4.424;2023-08-06T03:58:40;16.70;99.90
31521;DHT22;69043;51.224;4.424;2023-08-06T04:01:05;16.60;99.90
31521;DHT22;69043;51.224;4.424;2023-08-06T04:03:31;16.70;99.90
31521;DHT22;69043;51.224;4.424;2023-08-06T04:05:57;16.50;99.90
31521;DHT22;69043;51.224;4.424;2023-08-06T04:08:22;16.50;99.90
31521;DHT22;69043;51.224;4.424;2023-08-06T04:10:52;16.50;99.90
31521;DHT22;69043;51.224;4.424;2023-08-06T04:13:18;16.40;99.90
31521;DHT22;69043;51.224;4.424;2023-08-06T04:15:44;16.40;99.90
31521;DHT22;69043;51.224;4.424;2023-08-06T04:18:09;16.40;99.90
31521;DHT22;69043;51.224;4.424;2023-08-06T04:20:41;16.40;99.90
31521;DHT22;69043;51.224;4.424;2023-08-06T04:23:07;16.30;99.90
31521;DHT22;69043;51.224;4.424;2023-08-06T04:25:33;16.30;99.90
31521;DHT22;69043;51.224;4.424;2023-08-06T04:27:58;16.10;99.90
31521;DHT22;69043;51.224;4.424;2023-08-06T04:30:24;16.00;99.90
31521;DHT22;69043;51.224;4.424;2023-08-06T04:32:50;15.80;99.90
31521;DHT22;69043;51.224;4.424;2023-08-06T04:35:16;15.60;99.90
31521;DHT22;69043;51.224;4.424;2023-08-06T04:37:42;15.40;99.90
31521;DHT22;69043;51.224;4.424;2023-08-06T04:40:08;15.30;99.90
31521;DHT22;69043;51.224;4.424;2023-08-06T04:42:34;15.20;99.90
31521;DHT22;69043;51.224;4.424;2023-08-06T04:45:01;15.10;99.90
31521;DHT22;69043;51.224;4.424;2023-08-06T04:47:27;15.10;99.90
31521;DHT22;69043;51.224;4.424;2023-08-06T04:49:53;15.10;99.90
31521;DHT22;69043;51.224;4.424;2023-08-06T04:52:19;15.10;99.90
31521;DHT22;69043;51.224;4.424;2023-08-06T04:54:45;15.20;99.90
31521;DHT22;69043;51.224;4.424;2023-08-06T04:57:10;15.20;99.90
31521;DHT22;69043;51.224;4.424;2023-08-06T04:59:36;15.30;99.90
31521;DHT22;69043;51.224;4.424;2023-08-06T05:02:02;15.50;99.90
31521;DHT22;69043;51.224;4.424;2023-08-06T05:04:27;15.40;99.90
31521;DHT22;69043;51.224;4.424;2023-08-06T05:06:53;15.40;99.90
31521;DHT22;69043;51.224;4.424;2023-08-06T05:09:19;15.40;99.90
31521;DHT22;69043;51.224;4.424;2023-08-06T05:11:46;15.50;99.90
31521;DHT22;69043;51.224;4.424;2023-08-06T05:14:12;15.50;99.90
31521;DHT22;69043;51.224;4.424;2023-08-06T05:16:38;15.40;99.90
31521;DHT22;69043;51.224;4.424;2023-08-06T05:19:04;15.40;99.90
31521;DHT22;69043;51.224;4.424;2023-08-06T05:21:29;15.30;99.90
31521;DHT22;69043;51.224;4.424;2023-08-06T05:23:55;15.40;99.90
31521;DHT22;69043;51.224;4.424;2023-08-06T05:26:21;15.40;99.90
31521;DHT22;69043;51.224;4.424;2023-08-06T05:28:47;15.40;99.90
31521;DHT22;69043;51.224;4.424;2023-08-06T05:31:12;15.30;99.90
31521;DHT22;69043;51.224;4.424;2023-08-06T05:33:38;15.20;99.90
31521;DHT22;69043;51.224;4.424;2023-08-06T05:36:04;15.20;99.90
31521;DHT22;69043;51.224;4.424;2023-08-06T05:38:30;15.20;99.90
31521;DHT22;69043;51.224;4.424;2023-08-06T05:40:56;15.20;99.90
31521;DHT22;69043;51.224;4.424;2023-08-06T05:43:22;15.20;99.90
31521;DHT22;69043;51.224;4.424;2023-08-06T05:45:50;15.20;99.90
31521;DHT22;69043;51.224;4.424;2023-08-06T05:48:16;15.10;99.90
31521;DHT22;69043;51.224;4.424;2023-08-06T05:50:41;15.20;99.90
31521;DHT22;69043;51.224;4.424;2023-08-06T05:53:07;15.20;99.90
31521;DHT22;69043;51.224;4.424;2023-08-06T05:55:33;15.20;99.90
31521;DHT22;69043;51.224;4.424;2023-08-06T05:57:59;15.20;99.90
31521;DHT22;69043;51.224;4.424;2023-08-06T06:00:25;15.20;99.90
31521;DHT22;69043;51.224;4.424;2023-08-06T06:02:51;15.10;99.90
31521;DHT22;69043;51.224;4.424;2023-08-06T06:05:16;15.20;99.90
31521;DHT22;69043;51.224;4.424;2023-08-06T06:07:42;15.20;99.90
31521;DHT22;69043;51.224;4.424;2023-08-06T06:10:08;15.20;99.90
31521;DHT22;69043;51.224;4.424;2023-08-06T06:12:34;15.30;99.90
31521;DHT22;69043;51.224;4.424;2023-08-06T06:14:59;15.30;99.90
31521;DHT22;69043;51.224;4.424;2023-08-06T06:17:29;15.40;99.90
31521;DHT22;69043;51.224;4.424;2023-08-06T06:19:54;15.50;99.90
31521;DHT22;69043;51.224;4.424;2023-08-06T06:22:20;15.60;99.90
31521;DHT22;69043;51.224;4.424;2023-08-06T06:24:46;15.60;99.90
31521;DHT22;69043;51.224;4.424;2023-08-06T06:27:11;15.60;99.90
31521;DHT22;69043;51.224;4.424;2023-08-06T06:29:38;15.70;99.90
31521;DHT22;69043;51.224;4.424;2023-08-06T06:32:04;15.80;99.90
31521;DHT22;69043;51.224;4.424;2023-08-06T06:34:30;15.90;99.90
31521;DHT22;69043;51.224;4.424;2023-08-06T06:36:55;16.00;99.90
31521;DHT22;69043;51.224;4.424;2023-08-06T06:39:21;16.00;99.90
31521;DHT22;69043;51.224;4.424;2023-08-06T06:41:47;16.10;99.90
31521;DHT22;69043;51.224;4.424;2023-08-06T06:44:13;16.10;99.90
31521;DHT22;69043;51.224;4.424;2023-08-06T06:46:42;16.00;99.90
31521;DHT22;69043;51.224;4.424;2023-08-06T06:49:07;16.00;99.90
31521;DHT22;69043;51.224;4.424;2023-08-06T06:51:33;16.00;99.90
31521;DHT22;69043;51.224;4.424;2023-08-06T06:53:58;16.00;99.90
31521;DHT22;69043;51.224;4.424;2023-08-06T06:56:24;16.00;99.90
31521;DHT22;69043;51.224;4.424;2023-08-06T06:58:50;16.10;99.90
31521;DHT22;69043;51.224;4.424;2023-08-06T07:01:15;16.10;99.90
31521;DHT22;69043;51.224;4.424;2023-08-06T07:03:41;16.10;99.90
31521;DHT22;69043;51.224;4.424;2023-08-06T07:06:07;16.20;99.90
31521;DHT22;69043;51.224;4.424;2023-08-06T07:08:33;16.20;99.90
31521;DHT22;69043;51.224;4.424;2023-08-06T07:11:02;16.20;99.90
31521;DHT22;69043;51.224;4.424;2023-08-06T07:13:29;16.30;99.90
31521;DHT22;69043;51.224;4.424;2023-08-06T07:15:55;16.40;99.90
31521;DHT22;69043;51.224;4.424;2023-08-06T07:18:21;16.40;99.90
31521;DHT22;69043;51.224;4.424;2023-08-06T07:20:51;16.50;99.90
31521;DHT22;69043;51.224;4.424;2023-08-06T07:23:19;16.60;99.90
31521;DHT22;69043;51.224;4.424;2023-08-06T07:25:46;16.60;99.90
31521;DHT22;69043;51.224;4.424;2023-08-06T07:28:12;16.50;99.90
31521;DHT22;69043;51.224;4.424;2023-08-06T07:30:42;16.50;99.90
31521;DHT22;69043;51.224;4.424;2023-08-06T07:33:08;16.40;99.90
31521;DHT22;69043;51.224;4.424;2023-08-06T07:35:34;16.30;99.90
31521;DHT22;69043;51.224;4.424;2023-08-06T07:38:00;16.30;99.90
31521;DHT22;69043;51.224;4.424;2023-08-06T07:40:26;16.20;99.90
31521;DHT22;69043;51.224;4.424;2023-08-06T07:42:52;16.00;99.90
31521;DHT22;69043;51.224;4.424;2023-08-06T07:45:17;15.90;99.90
31521;DHT22;69043;51.224;4.424;2023-08-06T07:47:43;16.00;99.90
31521;DHT22;69043;51.224;4.424;2023-08-06T07:50:09;16.00;99.90
31521;DHT22;69043;51.224;4.424;2023-08-06T07:52:35;16.10;99.90
31521;DHT22;69043;51.224;4.424;2023-08-06T07:55:01;16.10;99.90
31521;DHT22;69043;51.224;4.424;2023-08-06T07:57:33;16.10;99.90
31521;DHT22;69043;51.224;4.424;2023-08-06T08:00:00;16.20;99.90
31521;DHT22;69043;51.224;4.424;2023-08-06T08:02:26;16.20;99.90
31521;DHT22;69043;51.224;4.424;2023-08-06T08:04:52;16.20;99.90
31521;DHT22;69043;51.224;4.424;2023-08-06T08:07:18;16.30;99.90
31521;DHT22;69043;51.224;4.424;2023-08-06T08:09:44;16.50;99.90
31521;DHT22;69043;51.224;4.424;2023-08-06T08:12:09;16.50;99.90
31521;DHT22;69043;51.224;4.424;2023-08-06T08:14:35;16.70;99.90
31521;DHT22;69043;51.224;4.424;2023-08-06T08:17:03;16.70;99.90
31521;DHT22;69043;51.224;4.424;2023-08-06T08:19:29;16.70;99.90
31521;DHT22;69043;51.224;4.424;2023-08-06T08:21:55;16.70;99.90
31521;DHT22;69043;51.224;4.424;2023-08-06T08:24:21;16.70;99.90
31521;DHT22;69043;51.224;4.424;2023-08-06T08:26:52;16.80;99.90
31521;DHT22;69043;51.224;4.424;2023-08-06T08:29:19;16.80;99.90
31521;DHT22;69043;51.224;4.424;2023-08-06T08:31:45;16.90;99.90
31521;DHT22;69043;51.224;4.424;2023-08-06T08:34:11;16.90;99.90
31521;DHT22;69043;51.224;4.424;2023-08-06T08:36:37;16.90;99.90
31521;DHT22;69043;51.224;4.424;2023-08-06T08:39:02;17.10;99.90
31521;DHT22;69043;51.224;4.424;2023-08-06T08:41:31;17.30;99.90
31521;DHT22;69043;51.224;4.424;2023-08-06T08:43:58;17.40;99.90
31521;DHT22;69043;51.224;4.424;2023-08-06T08:46:26;17.50;99.90
31521;DHT22;69043;51.224;4.424;2023-08-06T08:48:53;17.50;99.90
31521;DHT22;69043;51.224;4.424;2023-08-06T08:51:19;17.60;99.90
31521;DHT22;69043;51.224;4.424;2023-08-06T08:53:47;17.70;99.90
31521;DHT22;69043;51.224;4.424;2023-08-06T08:56:13;17.50;99.90
31521;DHT22;69043;51.224;4.424;2023-08-06T08:58:40;17.40;99.90
31521;DHT22;69043;51.224;4.424;2023-08-06T09:01:06;17.50;99.90
31521;DHT22;69043;51.224;4.424;2023-08-06T09:03:33;17.40;99.90
31521;DHT22;69043;51.224;4.424;2023-08-06T09:06:00;17.40;99.90
31521;DHT22;69043;51.224;4.424;2023-08-06T09:08:40;17.20;99.90
31521;DHT22;69043;51.224;4.424;2023-08-06T09:11:09;17.10;99.90
31521;DHT22;69043;51.224;4.424;2023-08-06T09:13:37;17.00;99.90
31521;DHT22;69043;51.224;4.424;2023-08-06T09:16:03;16.90;99.90
31521;DHT22;69043;51.224;4.424;2023-08-06T09:18:30;16.90;99.90
31521;DHT22;69043;51.224;4.424;2023-08-06T09:20:56;16.90;99.90
31521;DHT22;69043;51.224;4.424;2023-08-06T09:23:28;16.90;99.90
31521;DHT22;69043;51.224;4.424;2023-08-06T09:25:59;16.80;99.90
31521;DHT22;69043;51.224;4.424;2023-08-06T09:28:24;16.60;99.90
31521;DHT22;69043;51.224;4.424;2023-08-06T09:30:52;16.50;99.90
31521;DHT22;69043;51.224;4.424;2023-08-06T09:33:22;16.30;99.90
31521;DHT22;69043;51.224;4.424;2023-08-06T09:35:48;16.10;99.90
31521;DHT22;69043;51.224;4.424;2023-08-06T09:38:14;16.00;99.90
31521;DHT22;69043;51.224;4.424;2023-08-06T09:40:40;16.00;99.90
31521;DHT22;69043;51.224;4.424;2023-08-06T09:43:08;16.10;99.90
31521;DHT22;69043;51.224;4.424;2023-08-06T09:45:37;16.20;99.90
31521;DHT22;69043;51.224;4.424;2023-08-06T09:48:08;16.30;99.90
31521;DHT22;69043;51.224;4.424;2023-08-06T09:50:36;16.20;99.90
31521;DHT22;69043;51.224;4.424;2023-08-06T09:53:09;16.20;99.90
31521;DHT22;69043;51.224;4.424;2023-08-06T09:55:45;16.00;99.90
31521;DHT22;69043;51.224;4.424;2023-08-06T09:58:11;16.00;99.90
31521;DHT22;69043;51.224;4.424;2023-08-06T10:00:37;15.80;99.90
31521;DHT22;69043;51.224;4.424;2023-08-06T10:03:04;15.70;99.90
31521;DHT22;69043;51.224;4.424;2023-08-06T10:05:32;15.70;99.90
31521;DHT22;69043;51.224;4.424;2023-08-06T10:07:59;15.70;99.90
31521;DHT22;69043;51.224;4.424;2023-08-06T10:10:27;15.70;99.90
31521;DHT22;69043;51.224;4.424;2023-08-06T10:12:57;15.80;99.90
31521;DHT22;69043;51.224;4.424;2023-08-06T10:15:26;15.80;99.90
31521;DHT22;69043;51.224;4.424;2023-08-06T10:17:55;15.90;99.90
31521;DHT22;69043;51.224;4.424;2023-08-06T10:20:22;16.00;99.90
31521;DHT22;69043;51.224;4.424;2023-08-06T10:23:05;16.00;99.90
31521;DHT22;69043;51.224;4.424;2023-08-06T10:25:40;16.00;99.90
31521;DHT22;69043;51.224;4.424;2023-08-06T10:28:09;16.10;99.90
31521;DHT22;69043;51.224;4.424;2023-08-06T10:30:45;15.90;99.90
31521;DHT22;69043;51.224;4.424;2023-08-06T10:33:11;15.80;99.90
31521;DHT22;69043;51.224;4.424;2023-08-06T10:35:37;15.90;99.90
31521;DHT22;69043;51.224;4.424;2023-08-06T10:40:39;15.90;99.90
31521;DHT22;69043;51.224;4.424;2023-08-06T10:43:06;16.00;99.90
31521;DHT22;69043;51.224;4.424;2023-08-06T10:45:50;16.00;99.90
31521;DHT22;69043;51.224;4.424;2023-08-06T10:48:37;16.00;99.90
31521;DHT22;69043;51.224;4.424;2023-08-06T10:51:07;16.00;99.90
31521;DHT22;69043;51.224;4.424;2023-08-06T10:53:33;15.90;99.90
31521;DHT22;69043;51.224;4.424;2023-08-06T10:55:59;15.90;99.90
31521;DHT22;69043;51.224;4.424;2023-08-06T10:58:25;16.20;99.90
31521;DHT22;69043;51.224;4.424;2023-08-06T11:00:56;16.30;99.90
31521;DHT22;69043;51.224;4.424;2023-08-06T11:03:22;16.30;99.90
31521;DHT22;69043;51.224;4.424;2023-08-06T11:05:51;16.30;99.90
31521;DHT22;69043;51.224;4.424;2023-08-06T11:08:25;16.50;99.90
31521;DHT22;69043;51.224;4.424;2023-08-06T11:10:54;16.70;99.90
31521;DHT22;69043;51.224;4.424;2023-08-06T11:13:21;16.70;99.90
31521;DHT22;69043;51.224;4.424;2023-08-06T11:15:47;16.80;99.90
31521;DHT22;69043;51.224;4.424;2023-08-06T11:18:13;16.80;99.90
31521;DHT22;69043;51.224;4.424;2023-08-06T11:20:39;16.70;99.90
31521;DHT22;69043;51.224;4.424;2023-08-06T11:23:06;16.60;99.90
31521;DHT22;69043;51.224;4.424;2023-08-06T11:25:36;16.70;99.90
31521;DHT22;69043;51.224;4.424;2023-08-06T11:28:03;16.60;99.90
31521;DHT22;69043;51.224;4.424;2023-08-06T11:30:29;16.70;99.90
31521;DHT22;69043;51.224;4.424;2023-08-06T11:32:56;16.70;99.90
31521;DHT22;69043;51.224;4.424;2023-08-06T11:35:24;16.70;99.90
31521;DHT22;69043;51.224;4.424;2023-08-06T11:37:50;17.00;99.90
31521;DHT22;69043;51.224;4.424;2023-08-06T11:40:20;17.30;99.90
31521;DHT22;69043;51.224;4.424;2023-08-06T11:42:46;17.40;99.90
31521;DHT22;69043;51.224;4.424;2023-08-06T11:45:16;17.20;99.90
31521;DHT22;69043;51.224;4.424;2023-08-06T11:47:42;16.90;99.90
31521;DHT22;69043;51.224;4.424;2023-08-06T11:50:49;16.60;99.90
31521;DHT22;69043;51.224;4.424;2023-08-06T11:53:27;16.40;99.90
31521;DHT22;69043;51.224;4.424;2023-08-06T11:55:54;16.30;99.90
31521;DHT22;69043;51.224;4.424;2023-08-06T11:58:20;16.20;99.90
31521;DHT22;69043;51.224;4.424;2023-08-06T12:00:48;16.30;99.90
31521;DHT22;69043;51.224;4.424;2023-08-06T12:03:15;16.40;99.90
31521;DHT22;69043;51.224;4.424;2023-08-06T12:05:45;16.40;99.90
31521;DHT22;69043;51.224;4.424;2023-08-06T12:08:12;16.40;99.90
31521;DHT22;69043;51.224;4.424;2023-08-06T12:10:38;16.10;99.90
31521;DHT22;69043;51.224;4.424;2023-08-06T12:13:07;15.90;99.90
31521;DHT22;69043;51.224;4.424;2023-08-06T12:15:32;16.00;99.90
31521;DHT22;69043;51.224;4.424;2023-08-06T12:17:58;15.90;99.90
31521;DHT22;69043;51.224;4.424;2023-08-06T12:20:24;16.10;99.90
31521;DHT22;69043;51.224;4.424;2023-08-06T12:22:50;16.10;99.90
31521;DHT22;69043;51.224;4.424;2023-08-06T12:25:16;16.10;99.90
31521;DHT22;69043;51.224;4.424;2023-08-06T12:27:43;16.10;99.90
31521;DHT22;69043;51.224;4.424;2023-08-06T12:30:11;16.20;99.90
31521;DHT22;69043;51.224;4.424;2023-08-06T12:32:40;16.30;99.90
31521;DHT22;69043;51.224;4.424;2023-08-06T12:35:06;16.30;99.90
31521;DHT22;69043;51.224;4.424;2023-08-06T12:37:33;16.40;99.90
31521;DHT22;69043;51.224;4.424;2023-08-06T12:39:58;16.40;99.90
31521;DHT22;69043;51.224;4.424;2023-08-06T12:42:28;16.30;99.90
31521;DHT22;69043;51.224;4.424;2023-08-06T12:44:54;16.20;99.90
31521;DHT22;69043;51.224;4.424;2023-08-06T12:47:21;16.10;99.90
31521;DHT22;69043;51.224;4.424;2023-08-06T12:49:50;15.90;99.90
31521;DHT22;69043;51.224;4.424;2023-08-06T12:52:16;15.70;99.90
31521;DHT22;69043;51.224;4.424;2023-08-06T12:54:42;15.60;99.90
31521;DHT22;69043;51.224;4.424;2023-08-06T12:57:08;15.60;99.90
31521;DHT22;69043;51.224;4.424;2023-08-06T12:59:34;15.50;99.90
31521;DHT22;69043;51.224;4.424;2023-08-06T13:02:02;15.40;99.90
31521;DHT22;69043;51.224;4.424;2023-08-06T13:04:28;15.40;99.90
31521;DHT22;69043;51.224;4.424;2023-08-06T13:06:54;15.50;99.90
31521;DHT22;69043;51.224;4.424;2023-08-06T13:09:20;15.40;99.90
31521;DHT22;69043;51.224;4.424;2023-08-06T13:11:46;15.40;99.90
31521;DHT22;69043;51.224;4.424;2023-08-06T13:14:15;15.40;99.90
31521;DHT22;69043;51.224;4.424;2023-08-06T13:16:42;15.30;99.90
31521;DHT22;69043;51.224;4.424;2023-08-06T13:19:09;15.40;99.90
31521;DHT22;69043;51.224;4.424;2023-08-06T13:24:19;15.30;99.90
31521;DHT22;69043;51.224;4.424;2023-08-06T13:26:44;15.30;99.90
31521;DHT22;69043;51.224;4.424;2023-08-06T13:29:10;15.20;99.90
31521;DHT22;69043;51.224;4.424;2023-08-06T13:31:37;15.10;99.90
31521;DHT22;69043;51.224;4.424;2023-08-06T13:34:03;15.00;99.90
31521;DHT22;69043;51.224;4.424;2023-08-06T13:36:38;15.10;99.90
31521;DHT22;69043;51.224;4.424;2023-08-06T13:39:07;15.10;99.90
31521;DHT22;69043;51.224;4.424;2023-08-06T13:41:33;15.20;99.90
31521;DHT22;69043;51.224;4.424;2023-08-06T13:43:59;15.20;99.90
31521;DHT22;69043;51.224;4.424;2023-08-06T13:46:25;15.20;99.90
31521;DHT22;69043;51.224;4.424;2023-08-06T13:48:53;15.20;99.90
31521;DHT22;69043;51.224;4.424;2023-08-06T13:51:19;15.20;99.90
31521;DHT22;69043;51.224;4.424;2023-08-06T13:54:08;15.30;99.90
31521;DHT22;69043;51.224;4.424;2023-08-06T13:56:34;15.40;99.90
31521;DHT22;69043;51.224;4.424;2023-08-06T13:59:11;15.50;99.90
31521;DHT22;69043;51.224;4.424;2023-08-06T14:01:39;15.50;99.90
31521;DHT22;69043;51.224;4.424;2023-08-06T14:04:05;15.50;99.90
31521;DHT22;69043;51.224;4.424;2023-08-06T14:06:31;15.50;99.90
31521;DHT22;69043;51.224;4.424;2023-08-06T14:08:57;15.50;99.90
31521;DHT22;69043;51.224;4.424;2023-08-06T14:11:22;15.40;99.90
31521;DHT22;69043;51.224;4.424;2023-08-06T14:13:48;15.40;99.90
31521;DHT22;69043;51.224;4.424;2023-08-06T14:16:14;15.30;99.90
31521;DHT22;69043;51.224;4.424;2023-08-06T14:18:40;15.30;99.90
31521;DHT22;69043;51.224;4.424;2023-08-06T14:21:07;15.20;99.90
31521;DHT22;69043;51.224;4.424;2023-08-06T14:23:33;15.20;99.90
31521;DHT22;69043;51.224;4.424;2023-08-06T14:25:59;15.20;99.90
31521;DHT22;69043;51.224;4.424;2023-08-06T14:28:25;15.20;99.90
31521;DHT22;69043;51.224;4.424;2023-08-06T14:30:51;15.10;99.90
31521;DHT22;69043;51.224;4.424;2023-08-06T14:33:17;15.20;99.90
31521;DHT22;69043;51.224;4.424;2023-08-06T14:35:42;15.30;99.90
31521;DHT22;69043;51.224;4.424;2023-08-06T14:38:08;15.40;99.90
31521;DHT22;69043;51.224;4.424;2023-08-06T14:40:34;15.50;99.90
31521;DHT22;69043;51.224;4.424;2023-08-06T14:43:05;15.70;99.90
31521;DHT22;69043;51.224;4.424;2023-08-06T14:45:31;15.70;99.90
31521;DHT22;69043;51.224;4.424;2023-08-06T14:47:56;15.80;99.90
31521;DHT22;69043;51.224;4.424;2023-08-06T14:50:23;15.80;99.90
31521;DHT22;69043;51.224;4.424;2023-08-06T14:52:48;15.70;99.90
31521;DHT22;69043;51.224;4.424;2023-08-06T14:55:26;15.70;99.90
31521;DHT22;69043;51.224;4.424;2023-08-06T14:57:52;15.70;99.90
31521;DHT22;69043;51.224;4.424;2023-08-06T15:00:19;15.60;99.90
31521;DHT22;69043;51.224;4.424;2023-08-06T15:02:46;15.60;99.90
31521;DHT22;69043;51.224;4.424;2023-08-06T15:05:11;15.60;99.90
31521;DHT22;69043;51.224;4.424;2023-08-06T15:08:16;15.60;99.90
31521;DHT22;69043;51.224;4.424;2023-08-06T15:11:07;15.50;99.90
31521;DHT22;69043;51.224;4.424;2023-08-06T15:21:18;15.40;99.90
31521;DHT22;69043;51.224;4.424;2023-08-06T15:23:44;15.20;99.90
31521;DHT22;69043;51.224;4.424;2023-08-06T15:26:10;15.10;99.90
31521;DHT22;69043;51.224;4.424;2023-08-06T15:28:36;15.20;99.90
31521;DHT22;69043;51.224;4.424;2023-08-06T15:31:02;15.20;99.90
31521;DHT22;69043;51.224;4.424;2023-08-06T15:33:30;15.30;99.90
31521;DHT22;69043;51.224;4.424;2023-08-06T15:35:55;15.30;99.90
31521;DHT22;69043;51.224;4.424;2023-08-06T15:38:21;15.40;99.90
31521;DHT22;69043;51.224;4.424;2023-08-06T15:40:47;15.50;99.90
31521;DHT22;69043;51.224;4.424;2023-08-06T15:43:13;15.40;99.90